createdAt,value
2023-05-01T00:02:04.450Z,99560.19
2023-05-01T00:04:35.512Z,99569.03
2023-05-01T00:07:03.926Z,99563.78
2023-05-01T00:09:33.252Z,99561.59
2023-05-01T00:12:03.073Z,99559.38
2023-05-01T00:14:31.640Z,99561.91
2023-05-01T00:17:00.045Z,99560.53
2023-05-01T00:19:29.858Z,99552.78
2023-05-01T00:21:58.268Z,99552.25
2023-05-01T00:24:26.612Z,99550.88
2023-05-01T00:26:55.017Z,99551.47
2023-05-01T00:29:23.801Z,99544.56
2023-05-01T00:31:53.365Z,99543.19
2023-05-01T00:34:21.989Z,99547.34
2023-05-01T00:36:51.785Z,99550.66
2023-05-01T00:39:20.220Z,99548.41
2023-05-01T00:41:48.574Z,99543.19
2023-05-01T00:44:17.085Z,99536.59
2023-05-01T00:46:45.467Z,99542.41
2023-05-01T00:49:13.894Z,99540.19
2023-05-01T00:51:43.075Z,99542.41
2023-05-01T00:54:12.924Z,99532.75
2023-05-01T00:56:41.490Z,99534.13
2023-05-01T00:59:09.962Z,99537.19
2023-05-01T01:01:38.581Z,99533.84
2023-05-01T01:04:07.173Z,99540.78
2023-05-01T01:06:53.464Z,99531.69
2023-05-01T01:09:36.236Z,99535.53
2023-05-01T01:12:17.055Z,99541.34
2023-05-01T01:14:52.737Z,99539.13
2023-05-01T01:17:39.930Z,99532.22
2023-05-01T01:20:46.523Z,99533.91
2023-05-01T01:24:14.429Z,99534.47
2023-05-01T01:27:25.585Z,99537.78
2023-05-01T01:30:31.442Z,99538.03
2023-05-01T01:33:26.136Z,99535.03
2023-05-01T01:36:01.517Z,99535.03
2023-05-01T01:38:38.776Z,99532.56
2023-05-01T01:41:13.710Z,99527.31
2023-05-01T01:43:47.927Z,99518.47
2023-05-01T01:46:20.555Z,99518.78
2023-05-01T01:48:51.594Z,99516.31
2023-05-01T01:51:23.570Z,99516.56
2023-05-01T01:53:59.714Z,99519.84
2023-05-01T01:56:30.704Z,99514.63
2023-05-01T01:59:02.372Z,99512.41
2023-05-01T02:01:31.894Z,99510.78
2023-05-01T02:04:01.694Z,99517.69
2023-05-01T02:06:33.793Z,99505.28
2023-05-01T02:09:06.508Z,99496.44
2023-05-01T02:11:38.008Z,99509.69
2023-05-01T02:14:08.919Z,99501.69
2023-05-01T02:16:38.828Z,99510.25
2023-05-01T02:19:07.694Z,99515.19
2023-05-01T02:21:40.248Z,99506.38
2023-05-01T02:24:10.531Z,99506.66
2023-05-01T02:26:44.567Z,99500.88
2023-05-01T02:29:13.007Z,99493.97
2023-05-01T02:31:41.497Z,99487.09
2023-05-01T02:34:09.869Z,99486.25
2023-05-01T02:36:39.811Z,99486.81
2023-05-01T02:39:08.553Z,99486.53
2023-05-01T02:41:38.173Z,99488.75
2023-05-01T02:44:08.714Z,99482.13
2023-05-01T02:46:39.239Z,99483.50
2023-05-01T02:49:08.273Z,99481.00
2023-05-01T02:51:38.630Z,99481.25
2023-05-01T02:54:09.522Z,99479.88
2023-05-01T02:56:38.779Z,99478.25
2023-05-01T02:59:07.146Z,99479.34
2023-05-01T03:01:35.516Z,99474.94
2023-05-01T03:04:04.001Z,99471.63
2023-05-01T03:06:32.511Z,99481.81
2023-05-01T03:09:01.084Z,99479.59
2023-05-01T03:11:30.884Z,99474.38
2023-05-01T03:13:59.262Z,99469.97
2023-05-01T03:16:27.723Z,99470.78
2023-05-01T03:18:56.110Z,99468.59
2023-05-01T03:21:24.557Z,99476.59
2023-05-01T03:23:52.935Z,99462.81
2023-05-01T03:26:21.316Z,99474.09
2023-05-01T03:28:51.069Z,99470.25
2023-05-01T03:31:19.472Z,99473.00
2023-05-01T03:33:48.015Z,99476.59
2023-05-01T03:36:16.684Z,99471.34
2023-05-01T03:38:45.506Z,99473.25
2023-05-01T03:41:13.843Z,99476.31
2023-05-01T03:43:42.248Z,99466.38
2023-05-01T03:46:12.074Z,99467.78
2023-05-01T03:48:40.517Z,99470.78
2023-05-01T03:51:08.986Z,99470.22
2023-05-01T03:53:37.829Z,99464.19
2023-05-01T03:56:06.672Z,99472.44
2023-05-01T03:58:35.064Z,99467.22
2023-05-01T04:01:03.902Z,99466.66
2023-05-01T04:03:33.645Z,99467.75
2023-05-01T04:06:02.222Z,99469.69
2023-05-01T04:08:30.657Z,99473.25
2023-05-01T04:10:58.984Z,99475.19
2023-05-01T04:13:27.399Z,99466.09
2023-05-01T04:15:57.926Z,99472.44
2023-05-01T04:18:26.430Z,99473.25
2023-05-01T04:20:56.197Z,99472.19
2023-05-01T04:23:24.886Z,99473.81
2023-05-01T04:25:53.302Z,99479.59
2023-05-01T04:28:21.811Z,99472.44
2023-05-01T04:30:50.248Z,99470.78
2023-05-01T04:33:18.624Z,99469.41
2023-05-01T04:35:47.110Z,99470.78
2023-05-01T04:38:16.796Z,99461.97
2023-05-01T04:40:45.137Z,99465.81
2023-05-01T04:43:13.770Z,99462.25
2023-05-01T04:45:42.256Z,99470.25
2023-05-01T04:48:10.651Z,99470.56
2023-05-01T04:50:39.261Z,99468.06
2023-05-01T04:53:07.599Z,99462.56
2023-05-01T04:55:37.363Z,99474.41
2023-05-01T04:58:05.745Z,99477.69
2023-05-01T05:00:34.109Z,99477.13
2023-05-01T05:03:02.613Z,99469.66
2023-05-01T05:05:31.208Z,99459.41
2023-05-01T05:07:59.579Z,99469.31
2023-05-01T05:10:27.923Z,99463.47
2023-05-01T05:12:57.657Z,99456.00
2023-05-01T05:15:26.131Z,99455.94
2023-05-01T05:17:56.469Z,99461.13
2023-05-01T05:20:25.140Z,99463.03
2023-05-01T05:22:53.909Z,99463.25
2023-05-01T05:25:22.765Z,99455.44
2023-05-01T05:27:51.325Z,99462.53
2023-05-01T05:30:21.375Z,99464.41
2023-05-01T05:32:49.786Z,99467.66
2023-05-01T05:35:18.456Z,99462.06
2023-05-01T05:37:46.880Z,99460.84
2023-05-01T05:40:15.991Z,99472.09
2023-05-01T05:42:44.356Z,99462.94
2023-05-01T05:45:13.186Z,99467.00
2023-05-01T05:47:42.952Z,99470.50
2023-05-01T05:50:11.986Z,99459.91
2023-05-01T05:52:40.372Z,99457.84
2023-05-01T05:55:10.197Z,99461.63
2023-05-01T05:57:38.606Z,99461.50
2023-05-01T06:00:09.591Z,99469.19
2023-05-01T06:02:38.207Z,99467.09
2023-05-01T06:05:10.639Z,99465.56
2023-05-01T06:07:39.842Z,99462.09
2023-05-01T06:10:10.166Z,99457.03
2023-05-01T06:12:41.965Z,99452.69
2023-05-01T06:15:16.875Z,99454.72
2023-05-01T06:17:45.451Z,99449.84
2023-05-01T06:20:15.547Z,99452.22
2023-05-01T06:22:43.913Z,99448.47
2023-05-01T06:25:12.977Z,99452.22
2023-05-01T06:27:41.388Z,99452.25
2023-05-01T06:30:11.654Z,99446.56
2023-05-01T06:32:42.143Z,99442.88
2023-05-01T06:35:11.580Z,99450.22
2023-05-01T06:37:41.642Z,99451.88
2023-05-01T06:40:11.696Z,99443.88
2023-05-01T06:42:41.030Z,99451.00
2023-05-01T06:45:10.752Z,99450.09
2023-05-01T06:47:39.231Z,99452.88
2023-05-01T06:50:09.643Z,99441.34
2023-05-01T06:52:37.950Z,99444.53
2023-05-01T06:55:09.161Z,99440.72
2023-05-01T06:57:37.563Z,99437.59
2023-05-01T07:00:07.848Z,99434.56
2023-05-01T07:02:38.113Z,99441.44
2023-05-01T07:05:07.813Z,99443.88
2023-05-01T07:07:37.496Z,99446.06
2023-05-01T07:10:10.073Z,99442.06
2023-05-01T07:12:38.532Z,99441.09
2023-05-01T07:15:08.995Z,99434.75
2023-05-01T07:17:37.480Z,99442.66
2023-05-01T07:20:07.383Z,99433.84
2023-05-01T07:22:35.858Z,99444.72
2023-05-01T07:25:04.286Z,99438.69
2023-05-01T07:27:34.007Z,99430.72
2023-05-01T07:30:02.805Z,99431.06
2023-05-01T07:32:32.729Z,99434.84
2023-05-01T07:35:01.156Z,99438.03
2023-05-01T07:37:29.572Z,99439.06
2023-05-01T07:39:58.432Z,99440.34
2023-05-01T07:42:28.517Z,99431.50
2023-05-01T07:44:58.267Z,99422.16
2023-05-01T07:47:27.683Z,99430.38
2023-05-01T07:49:56.483Z,99424.47
2023-05-01T07:52:25.048Z,99417.44
2023-05-01T07:54:53.476Z,99416.47
2023-05-01T07:57:23.373Z,99419.63
2023-05-01T07:59:57.449Z,99421.28
2023-05-01T08:02:26.465Z,99422.59
2023-05-01T08:04:55.154Z,99417.50
2023-05-01T08:07:23.679Z,99422.59
2023-05-01T08:09:52.012Z,99417.72
2023-05-01T08:12:20.590Z,99415.75
2023-05-01T08:14:48.966Z,99414.44
2023-05-01T08:17:18.816Z,99411.03
2023-05-01T08:19:47.229Z,99411.50
2023-05-01T08:22:15.570Z,99404.34
2023-05-01T08:24:44.108Z,99403.19
2023-05-01T08:27:12.567Z,99407.78
2023-05-01T08:29:41.100Z,99401.53
2023-05-01T08:32:09.440Z,99401.03
2023-05-01T08:34:39.378Z,99398.41
2023-05-01T08:37:07.819Z,99398.06
2023-05-01T08:39:36.370Z,99398.06
2023-05-01T08:42:05.287Z,99391.53
2023-05-01T08:44:35.454Z,99403.34
2023-05-01T08:47:13.817Z,99405.00
2023-05-01T08:49:44.573Z,99404.47
2023-05-01T08:52:15.887Z,99398.56
2023-05-01T08:54:47.134Z,99396.44
2023-05-01T08:57:16.803Z,99392.47
2023-05-01T08:59:46.818Z,99384.56
2023-05-01T09:02:17.398Z,99380.13
2023-05-01T09:04:49.663Z,99376.81
2023-05-01T09:07:18.244Z,99371.38
2023-05-01T09:09:46.590Z,99370.03
2023-05-01T09:12:24.282Z,99371.00
2023-05-01T09:14:53.806Z,99359.31
2023-05-01T09:17:24.025Z,99362.41
2023-05-01T09:19:54.386Z,99360.56
2023-05-01T09:22:23.148Z,99356.28
2023-05-01T09:24:51.566Z,99349.69
2023-05-01T09:27:20.334Z,99344.72
2023-05-01T09:29:49.957Z,99338.13
2023-05-01T09:32:21.046Z,99341.19
2023-05-01T09:34:51.211Z,99340.03
2023-05-01T09:37:32.531Z,99337.34
2023-05-01T09:40:07.710Z,99334.22
2023-05-01T09:42:38.382Z,99333.53
2023-05-01T09:45:14.082Z,99332.50
2023-05-01T09:47:44.034Z,99331.78
2023-05-01T09:50:29.542Z,99332.53
2023-05-01T09:52:59.514Z,99323.44
2023-05-01T09:55:27.966Z,99322.53
2023-05-01T09:57:56.321Z,99320.72
2023-05-01T10:00:25.263Z,99320.00
2023-05-01T10:02:54.246Z,99324.25
2023-05-01T10:05:23.028Z,99320.41
2023-05-01T10:08:02.405Z,99304.97
2023-05-01T10:10:31.163Z,99312.78
2023-05-01T10:13:15.308Z,99297.63
2023-05-01T10:15:44.301Z,99316.41
2023-05-01T10:18:13.780Z,99303.22
2023-05-01T10:20:42.793Z,99291.81
2023-05-01T10:23:12.807Z,99303.63
2023-05-01T10:25:43.013Z,99290.19
2023-05-01T10:28:13.754Z,99295.13
2023-05-01T10:30:43.553Z,99292.31
2023-05-01T10:33:14.908Z,99291.94
2023-05-01T10:35:49.237Z,99284.53
2023-05-01T10:38:30.558Z,99283.00
2023-05-01T10:40:59.058Z,99283.38
2023-05-01T10:43:29.242Z,99276.66
2023-05-01T10:46:31.044Z,99266.56
2023-05-01T10:48:59.730Z,99265.00
2023-05-01T10:51:28.735Z,99279.31
2023-05-01T10:54:28.391Z,99261.31
2023-05-01T10:57:00.127Z,99257.53
2023-05-01T10:59:29.235Z,99261.09
2023-05-01T11:01:57.622Z,99253.56
2023-05-01T11:04:54.156Z,99241.28
2023-05-01T11:07:25.004Z,99241.44
2023-05-01T11:09:58.901Z,99230.06
2023-05-01T11:12:51.737Z,99222.56
2023-05-01T11:15:31.107Z,99221.06
2023-05-01T11:18:00.790Z,99227.09
2023-05-01T11:20:50.432Z,99216.47
2023-05-01T11:23:20.611Z,99218.63
2023-05-01T11:25:51.733Z,99212.28
2023-05-01T11:28:23.483Z,99201.88
2023-05-01T11:30:52.196Z,99204.84
2023-05-01T11:33:26.276Z,99202.97
2023-05-01T11:36:05.114Z,99199.88
2023-05-01T11:38:33.645Z,99197.19
2023-05-01T11:41:05.275Z,99196.47
2023-05-01T11:43:33.737Z,99189.22
2023-05-01T11:46:04.857Z,99181.56
2023-05-01T11:48:33.726Z,99193.34
2023-05-01T11:51:02.214Z,99167.50
2023-05-01T11:53:31.993Z,99175.22
2023-05-01T11:56:01.025Z,99184.16
2023-05-01T11:58:36.587Z,99175.25
2023-05-01T12:01:07.429Z,99169.63
2023-05-01T12:03:46.189Z,99170.03
2023-05-01T12:06:15.211Z,99173.28
2023-05-01T12:08:50.467Z,99174.13
2023-05-01T12:11:20.689Z,99172.50
2023-05-01T12:13:50.826Z,99159.09
2023-05-01T12:16:19.604Z,99169.22
2023-05-01T12:18:48.363Z,99157.88
2023-05-01T12:21:18.509Z,99147.69
2023-05-01T12:23:47.369Z,99148.91
2023-05-01T12:26:19.987Z,99155.03
2023-05-01T12:29:04.381Z,99142.44
2023-05-01T12:31:33.520Z,99142.72
2023-05-01T12:34:04.483Z,99145.03
2023-05-01T12:36:36.069Z,99143.25
2023-05-01T12:39:06.782Z,99142.69
2023-05-01T12:41:39.903Z,99138.59
2023-05-01T12:44:26.595Z,99134.25
2023-05-01T12:46:57.198Z,99127.16
2023-05-01T12:49:26.796Z,99126.91
2023-05-01T12:51:57.333Z,99130.16
2023-05-01T12:54:29.790Z,99130.53
2023-05-01T12:57:08.816Z,99124.41
2023-05-01T12:59:41.485Z,99126.34
2023-05-01T13:02:12.522Z,99120.16
2023-05-01T13:04:41.628Z,99117.03
2023-05-01T13:07:15.081Z,99105.00
2023-05-01T13:09:54.253Z,99106.94
2023-05-01T13:12:23.444Z,99106.06
2023-05-01T13:14:53.789Z,99099.91
2023-05-01T13:17:27.072Z,99099.09
2023-05-01T13:19:57.093Z,99088.31
2023-05-01T13:22:36.406Z,99095.63
2023-05-01T13:25:15.328Z,99086.06
2023-05-01T13:27:49.747Z,99087.50
2023-05-01T13:30:22.806Z,99083.19
2023-05-01T13:32:51.385Z,99076.75
2023-05-01T13:35:25.595Z,99070.06
2023-05-01T13:37:55.275Z,99078.78
2023-05-01T13:40:25.455Z,99061.91
2023-05-01T13:42:54.845Z,99065.47
2023-05-01T13:45:25.937Z,99055.19
2023-05-01T13:47:55.395Z,99053.75
2023-05-01T13:50:23.802Z,99057.38
2023-05-01T13:52:52.155Z,99051.41
2023-05-01T13:55:23.169Z,99059.97
2023-05-01T13:57:51.590Z,99058.81
2023-05-01T14:00:20.716Z,99054.59
2023-05-01T14:02:53.108Z,99055.59
2023-05-01T14:05:28.394Z,99052.00
2023-05-01T14:07:59.727Z,99045.44
2023-05-01T14:10:30.048Z,99056.69
2023-05-01T14:12:59.299Z,99047.75
2023-05-01T14:15:28.749Z,99041.69
2023-05-01T14:18:01.041Z,99047.25
2023-05-01T14:20:29.640Z,99051.84
2023-05-01T14:22:58.901Z,99040.88
2023-05-01T14:25:29.937Z,99039.59
2023-05-01T14:28:00.940Z,99026.09
2023-05-01T14:30:33.562Z,99017.91
2023-05-01T14:33:06.248Z,99015.38
2023-05-01T14:35:35.977Z,99013.56
2023-05-01T14:38:11.025Z,99011.84
2023-05-01T14:40:42.195Z,99002.28
2023-05-01T14:43:13.832Z,99002.84
2023-05-01T14:45:43.789Z,99012.34
2023-05-01T14:48:23.990Z,99004.91
2023-05-01T14:50:52.721Z,98998.44
2023-05-01T14:53:21.183Z,98996.94
2023-05-01T14:55:52.613Z,99000.00
2023-05-01T14:58:21.059Z,98998.28
2023-05-01T15:00:49.484Z,99008.00
2023-05-01T15:03:19.516Z,99001.84
2023-05-01T15:05:48.014Z,99009.72
2023-05-01T15:08:16.746Z,99009.47
2023-05-01T15:10:45.264Z,99002.31
2023-05-01T15:13:13.697Z,99000.72
2023-05-01T15:15:42.114Z,99008.88
2023-05-01T15:18:10.524Z,99015.31
2023-05-01T15:20:40.254Z,99007.66
2023-05-01T15:23:08.631Z,99016.13
2023-05-01T15:25:37.103Z,99010.41
2023-05-01T15:28:05.876Z,99012.34
2023-05-01T15:30:34.622Z,99011.00
2023-05-01T15:33:04.134Z,99011.25
2023-05-01T15:35:32.733Z,98999.78
2023-05-01T15:38:03.931Z,99011.69
2023-05-01T15:40:33.043Z,99016.31
2023-05-01T15:43:01.437Z,99008.03
2023-05-01T15:45:29.975Z,98999.41
2023-05-01T15:47:58.631Z,99005.66
2023-05-01T15:50:27.466Z,99001.84
2023-05-01T15:52:56.281Z,99009.72
2023-05-01T15:55:26.018Z,98995.00
2023-05-01T15:57:54.420Z,98996.84
2023-05-01T16:00:23.005Z,99006.25
2023-05-01T16:02:51.444Z,98996.38
2023-05-01T16:05:22.439Z,99005.41
2023-05-01T16:07:55.742Z,99005.97
2023-05-01T16:10:25.850Z,99007.34
2023-05-01T16:12:54.694Z,98999.91
2023-05-01T16:15:24.414Z,98994.53
2023-05-01T16:17:55.009Z,98997.22
2023-05-01T16:20:24.916Z,99000.69
2023-05-01T16:22:53.350Z,99001.66
2023-05-01T16:25:22.042Z,98996.56
2023-05-01T16:27:51.743Z,99009.16
2023-05-01T16:30:22.076Z,99006.06
2023-05-01T16:32:50.525Z,98998.97
2023-05-01T16:35:19.468Z,98982.72
2023-05-01T16:37:47.939Z,98999.69
2023-05-01T16:40:19.000Z,98997.84
2023-05-01T16:42:53.619Z,98995.25
2023-05-01T16:45:22.909Z,98990.25
2023-05-01T16:47:51.573Z,98996.53
2023-05-01T16:50:23.030Z,98992.31
2023-05-01T16:52:54.941Z,98998.56
2023-05-01T16:55:23.751Z,99002.41
2023-05-01T16:57:54.227Z,99007.81
2023-05-01T17:00:22.701Z,98994.78
2023-05-01T17:02:53.541Z,98999.78
2023-05-01T17:05:22.062Z,99000.69
2023-05-01T17:07:50.473Z,99000.06
2023-05-01T17:10:19.264Z,98995.81
2023-05-01T17:12:48.049Z,99005.13
2023-05-01T17:15:18.349Z,98996.41
2023-05-01T17:17:46.727Z,98991.31
2023-05-01T17:20:15.527Z,98993.84
2023-05-01T17:22:44.701Z,98991.53
2023-05-01T17:25:13.513Z,98998.47
2023-05-01T17:27:41.883Z,99004.63
2023-05-01T17:30:11.072Z,98989.09
2023-05-01T17:32:41.939Z,99010.00
2023-05-01T17:35:11.150Z,99006.53
2023-05-01T17:37:40.785Z,99012.75
2023-05-01T17:40:12.176Z,99006.47
2023-05-01T17:42:41.179Z,99005.44
2023-05-01T17:45:11.199Z,99010.00
2023-05-01T17:47:43.237Z,99005.34
2023-05-01T17:50:13.601Z,99006.28
2023-05-01T17:52:42.335Z,99006.84
2023-05-01T17:55:11.901Z,99018.63
2023-05-01T17:57:40.901Z,99015.13
2023-05-01T18:00:12.074Z,99007.69
2023-05-01T18:02:44.749Z,99005.44
2023-05-01T18:05:14.188Z,99001.63
2023-05-01T18:07:42.711Z,99005.78
2023-05-01T18:10:14.647Z,99016.72
2023-05-01T18:12:43.980Z,99008.94
2023-05-01T18:15:22.024Z,99014.28
2023-05-01T18:17:56.397Z,99019.25
2023-05-01T18:20:24.962Z,99018.66
2023-05-01T18:22:54.491Z,99014.91
2023-05-01T18:25:23.254Z,99016.28
2023-05-01T18:27:51.777Z,99018.97
2023-05-01T18:30:21.049Z,99023.63
2023-05-01T18:32:50.684Z,99025.47
2023-05-01T18:35:21.263Z,99030.09
2023-05-01T18:37:51.134Z,99028.78
2023-05-01T18:40:21.008Z,99033.44
2023-05-01T18:42:50.220Z,99031.69
2023-05-01T18:45:19.651Z,99041.09
2023-05-01T18:47:49.246Z,99038.19
2023-05-01T18:50:22.167Z,99041.19
2023-05-01T18:52:50.990Z,99040.22
2023-05-01T18:55:21.675Z,99043.69
2023-05-01T18:57:51.217Z,99043.06
2023-05-01T19:00:21.461Z,99044.91
2023-05-01T19:02:52.036Z,99054.75
2023-05-01T19:05:25.615Z,99045.75
2023-05-01T19:07:59.053Z,99054.84
2023-05-01T19:10:28.336Z,99049.09
2023-05-01T19:12:57.399Z,99049.81
2023-05-01T19:15:27.653Z,99053.25
2023-05-01T19:17:56.961Z,99053.94
2023-05-01T19:20:27.194Z,99057.75
2023-05-01T19:22:56.595Z,99056.44
2023-05-01T19:25:26.533Z,99057.44
2023-05-01T19:27:56.159Z,99053.72
2023-05-01T19:30:28.313Z,99060.31
2023-05-01T19:32:58.939Z,99059.00
2023-05-01T19:35:29.228Z,99063.97
2023-05-01T19:38:00.851Z,99061.38
2023-05-01T19:40:30.776Z,99069.25
2023-05-01T19:42:59.308Z,99065.00
2023-05-01T19:45:35.250Z,99069.63
2023-05-01T19:48:04.206Z,99070.28
2023-05-01T19:50:34.789Z,99077.69
2023-05-01T19:53:05.698Z,99079.16
2023-05-01T19:55:35.143Z,99080.16
2023-05-01T19:58:05.254Z,99091.19
2023-05-01T20:00:35.607Z,99084.59
2023-05-01T20:03:04.904Z,99088.88
2023-05-01T20:05:34.805Z,99094.66
2023-05-01T20:08:03.931Z,99087.28
2023-05-01T20:10:32.487Z,99093.03
2023-05-01T20:13:09.127Z,99090.09
2023-05-01T20:15:38.985Z,99089.94
2023-05-01T20:18:09.099Z,99088.63
2023-05-01T20:20:39.032Z,99087.69
2023-05-01T20:23:15.524Z,99089.16
2023-05-01T20:25:46.822Z,99093.06
2023-05-01T20:28:16.344Z,99088.66
2023-05-01T20:30:48.203Z,99094.06
2023-05-01T20:33:18.273Z,99096.03
2023-05-01T20:35:48.866Z,99096.72
2023-05-01T20:38:17.209Z,99101.47
2023-05-01T20:40:45.759Z,99096.53
2023-05-01T20:43:14.106Z,99099.66
2023-05-01T20:45:42.844Z,99100.31
2023-05-01T20:48:11.442Z,99094.25
2023-05-01T20:50:41.832Z,99090.66
2023-05-01T20:53:11.710Z,99098.53
2023-05-01T20:55:40.125Z,99087.72
2023-05-01T20:58:08.628Z,99100.00
2023-05-01T21:00:37.027Z,99087.22
2023-05-01T21:03:05.803Z,99097.56
2023-05-01T21:05:34.319Z,99105.09
2023-05-01T21:08:04.208Z,99100.66
2023-05-01T21:10:34.041Z,99091.00
2023-05-01T21:13:02.469Z,99104.94
2023-05-01T21:15:32.051Z,99099.16
2023-05-01T21:18:01.084Z,99096.72
2023-05-01T21:20:34.231Z,99103.75
2023-05-01T21:23:03.285Z,99099.31
2023-05-01T21:25:33.466Z,99104.41
2023-05-01T21:28:03.478Z,99101.94
2023-05-01T21:30:34.686Z,99103.44
2023-05-01T21:33:05.459Z,99115.38
2023-05-01T21:35:34.434Z,99116.53
2023-05-01T21:38:04.658Z,99110.13
2023-05-01T21:40:38.666Z,99116.38
2023-05-01T21:43:07.613Z,99114.41
2023-05-01T21:45:40.361Z,99107.19
2023-05-01T21:48:09.816Z,99115.88
2023-05-01T21:50:39.172Z,99113.91
2023-05-01T21:53:08.090Z,99114.72
2023-05-01T21:55:37.937Z,99115.06
2023-05-01T21:58:06.376Z,99116.19
2023-05-01T22:00:35.159Z,99119.31
2023-05-01T22:03:08.867Z,99123.22
2023-05-01T22:05:40.935Z,99117.66
2023-05-01T22:08:09.355Z,99118.50
2023-05-01T22:10:40.756Z,99121.59
2023-05-01T22:13:09.202Z,99121.59
2023-05-01T22:15:37.539Z,99121.59
2023-05-01T22:18:06.154Z,99127.19
2023-05-01T22:20:34.609Z,99127.19
2023-05-01T22:23:02.956Z,99123.22
2023-05-01T22:25:31.729Z,99125.22
2023-05-01T22:28:04.300Z,99125.53
2023-05-01T22:30:34.866Z,99127.50
2023-05-01T22:33:03.321Z,99125.53
2023-05-01T22:35:31.946Z,99129.47
2023-05-01T22:38:00.352Z,99134.22
2023-05-01T22:40:29.135Z,99134.56
2023-05-01T22:42:57.504Z,99131.25
2023-05-01T22:45:27.351Z,99132.75
2023-05-01T22:47:56.353Z,99132.75
2023-05-01T22:50:24.707Z,99131.44
2023-05-01T22:52:53.093Z,99140.44
2023-05-01T22:55:21.509Z,99139.09
2023-05-01T22:57:49.847Z,99133.06
2023-05-01T23:00:18.606Z,99132.06
2023-05-01T23:02:48.540Z,99133.53
2023-05-01T23:05:17.380Z,99137.78
2023-05-01T23:07:45.914Z,99132.88
2023-05-01T23:10:15.762Z,99139.09
2023-05-01T23:12:45.801Z,99147.25
2023-05-01T23:15:16.953Z,99151.84
2023-05-01T23:17:45.490Z,99154.75
2023-05-01T23:20:23.382Z,99161.09
2023-05-01T23:22:52.572Z,99150.66
2023-05-01T23:25:25.963Z,99157.44
2023-05-01T23:27:57.905Z,99155.63
2023-05-01T23:30:26.328Z,99157.09
2023-05-01T23:32:58.387Z,99153.66
2023-05-01T23:35:28.228Z,99154.28
2023-05-01T23:37:56.728Z,99151.34
2023-05-01T23:40:25.184Z,99149.19
2023-05-01T23:42:55.105Z,99149.81
2023-05-01T23:45:23.516Z,99152.44
2023-05-01T23:47:51.962Z,99144.44
2023-05-01T23:50:20.528Z,99150.63
2023-05-01T23:52:50.195Z,99150.13
2023-05-01T23:55:19.177Z,99150.94
2023-05-01T23:57:47.524Z,99146.50
